La Quinta, CA (92253)

3:12 PM PDT on August 04, 2015 (GMT -0700)
La Quinta Desert Club Estates | | Change Station
CLOSE
Current Station
Personal Weather Station
Location: La Quinta, CA
Elevation: 46 ft
Nearby Weather Stations
Active Advisory: Heat Advisory

Elev 46 ft 33.68 °N, 116.29 °W | Updated 4 minutes ago

Clear
Clear
122.2 °F
Feels Like 118 °F
N
1.1
Wind Variable Wind from East

Today
High -- | Low -- °F
--% Chance of Precip.
Yesterday
High -- | Low -- °F
Precip. -- in
5:59 AM 7:42 PM
Waning Gibbous, 74% visible
Pressure 29.72 in
Visibility 10.0 miles
Clouds Clear
Heat Index 118 °F
Dew Point 50 °F
Humidity 10%
Rainfall 0.00 in
Snow Depth Not available.
UV 9 out of 12
Pollen 4.20 out of 12
Air Quality Not available.
Flu Activity Not available.
METAR KTRM 042152Z AUTO VRB04KT 10SM CLR 43/03 A2971 RMK AO2 SLP064 T04330028 TSNO

More Conditions Fewer Conditions

Pressure 29.72 in
Visibility 10.0 miles
Clouds Clear
Heat Index 118 °F
Dew Point 50 °F
Humidity 10%
Rainfall 0.00 in
Snow Depth Not available.
UV 9 out of 12
Pollen 4.20 out of 12
Air Quality Not available.
Flu Activity Not available.
METAR KTRM 042152Z AUTO VRB04KT 10SM CLR 43/03 A2971 RMK AO2 SLP064 T04330028 TSNO

More Conditions Fewer Conditions

10-Day Weather Forecast

×

Almanac

Astronomy

Aug. 04, 2015 Rise Set
Actual Time
Civil Twilight
Nautical Twilight
Astronomical Twilight
Moon
Length of Visible Light
Length of Day
Tomorrow will be .
, % of the Moon is Illuminated

Today's Extremes

State Highs State Lows

Community

WunderPhotos

Upload Photos

1,844,002 photos uploaded!

WunderBlogs® & News

Nearby

Air Quality

  Air Quality AQ Index Pollutant
Not available.

Snow Depth

Station Depth Elevation

Earthquake Activity

City Distance Mag. Time & Date
Minimum magnitude displayed is 2.5.

Coastal Water Temperatures

Place Temperature

Stations

Nearby Weather Stations

Station Location Temp. Windchill Dew Point Humidity Wind Precip. Elev Updated Type
                   
Heat Advisory
Statement as of 12:58 PM PDT on August 04, 2015

... Heat advisory remains in effect until 6 PM PDT Wednesday...

* location... portions of the Coachella Valley.

* High temperatures... 112 to 115 degrees.

* Impacts... risk of heat related illness.

* Outlook... cooling for Thursday through Saturday.

Precautionary/preparedness actions...

Take extra precautions if you work or spend time outside. When
possible... reschedule strenuous activities to early morning or
evening. Know the signs and symptoms of heat exhaustion and heat
stroke. Wear light weight and loose fitting clothing when
possible and drink plenty of water.

To reduce risk during outdoor work the occupational safety and
health administration recommends scheduling frequent rest breaks
in shaded or air conditioned environments. Anyone overcome by
heat should be moved to a cool and shaded location. Heat stroke
is an emergency - call 911.